Saint Augustine, FL

5:46 AM EST on November 22, 2014 (GMT -0500)
Saint Augustine | Change Station
CLOSE
Current Station
Airport
Location: St. Augustine,
Elevation: 10 ft
Nearby Weather Stations
Active Advisory: Coastal Hazard Statement

Elev 10 ft 29.96 °N, 81.34 °W | Updated 48 minutes ago

Overcast
Overcast
67 °F
Feels Like 67 °F
N
14
Wind Variable Wind from East

Today
High -- | Low -- °F
--% Chance of Precip.
Yesterday
High -- | Low -- °F
Precip. -- in
6:55 AM 5:26 PM
Waning Crescent, 0% visible
Pressure 30.29 in
Visibility 10.0 miles
Clouds Mostly Cloudy 6500 ft
Overcast 10000 ft
Dew Point 59 °F
Humidity 76%
Rainfall 0.00 in
Snow Depth Not available.
UV 0 out of 12
Pollen 1.40 out of 12
Air Quality Not available.
Flu Activity Not available.
METAR KSGJ 220958Z AUTO 09012KT 10SM BKN065 OVC100 19/15 A3028 RMK AO2 SLP255 T01940150

More Conditions Fewer Conditions

Pressure 30.29 in
Visibility 10.0 miles
Clouds Mostly Cloudy 6500 ft
Overcast 10000 ft
Dew Point 59 °F
Humidity 76%
Rainfall 0.00 in
Snow Depth Not available.
UV 0 out of 12
Pollen 1.40 out of 12
Air Quality Not available.
Flu Activity Not available.
METAR KSGJ 220958Z AUTO 09012KT 10SM BKN065 OVC100 19/15 A3028 RMK AO2 SLP255 T01940150

More Conditions Fewer Conditions

10-Day Weather Forecast

Almanac

Astronomy

Nov. 22, 2014 Rise Set
Actual Time
Civil Twilight
Nautical Twilight
Astronomical Twilight
Moon
Length of Visible Light
Length of Day
Tomorrow will be .
, % of the Moon is Illuminated

Today's Extremes

State Highs State Lows

Community

WunderPhotos

Upload Photos

1,772,805 photos uploaded!

WunderBlogs® & News

Nearby

Air Quality

  Air Quality AQ Index Pollutant
Not available.

Snow Depth

Station Depth Elevation

Earthquake Activity

City Distance Mag. Time & Date
Minimum magnitude displayed is 2.5.

Coastal Water Temperatures

Place Temperature

Nearby Weather Stations